Buoy 54955

sailwx.info

Track history (hours):
 
Tides and Currents Weather Stations Pressure Air Temp Water Temp Dewpoint Dewpoint Depression Visibility Wind Speed Wind Dir Waves Ship Positions

Drifting buoy 54955

Last reported at 2018-Feb-21 07:00 UTC. Time now 2018-Feb-21 11:11 UTC.
Position S 35°43' W 138°31'.

Barometer 1017.1 mb
Water temperature 19.7 ° C

Date/timePositionNaut miles runAvg speedWind from/ knotsBaromVisibWave heightAir tempDewpointWater temp
2018-Feb-21 07:00S 35°43' W 138°31'0 0.0 1017.1 19.7
2018-Feb-21 06:00S 35°43' W 138°31'2 0.8 1018.0 19.8
2018-Feb-21 04:00S 35°43' W 138°32'1 1.5 1018.0 19.9
2018-Feb-21 03:00S 35°43' W 138°34'1 0.6 1018.0 19.9
2018-Feb-21 02:00S 35°42' W 138°34'2 1.6 1018.4 20.0
2018-Feb-21 01:00S 35°41' W 138°36'0 0.0 1019.0 20.0
2018-Feb-21 00:00S 35°41' W 138°36'4 0.7 1019.7 20.0
2018-Feb-20 19:00S 35°38' W 138°37'0 0.0 1022.7 19.8
2018-Feb-20 18:00S 35°38' W 138°37'0 0.0 1022.7 19.8
2018-Feb-20 17:00S 35°38' W 138°37'1 1.1 1022.7 19.8
2018-Feb-20 16:00S 35°37' W 138°35'0 0.5 1023.1 19.8
2018-Feb-20 15:00S 35°37' W 138°35'0 0.5 1023.2 19.8
2018-Feb-20 14:00S 35°37' W 138°35'0 0.0 1022.9 19.8
2018-Feb-20 13:00S 35°37' W 138°35'1 0.4 1023.0 19.8
2018-Feb-20 11:00S 35°38' W 138°35'2 0.4 1023.6 19.8
2018-Feb-20 07:00S 35°37' W 138°37'1 0.6 1024.7 19.9
2018-Feb-20 06:00S 35°37' W 138°37'0 0.0 1024.7 20.0
2018-Feb-20 05:00S 35°37' W 138°37'1 1.3 1024.5 20.0
2018-Feb-20 04:00S 35°35' W 138°36'0 0.0 1024.5 20.0
2018-Feb-20 03:00S 35°35' W 138°36'1 0.8 1024.4 20.0
2018-Feb-20 02:00S 35°35' W 138°35'0 0.0 1024.5 19.9
2018-Feb-20 01:00S 35°35' W 138°35'0 0.0 1024.3 19.9
2018-Feb-20 00:00S 35°35' W 138°35'4 0.7 1024.4 19.9
2018-Feb-19 18:00S 35°35' W 138°31'0 0.0 1025.5 19.8
2018-Feb-19 17:00S 35°35' W 138°31'0 0.5 1025.3 19.8
2018-Feb-19 16:00S 35°35' W 138°30'0 0.5 1025.3 19.8
2018-Feb-19 15:00S 35°35' W 138°29'1 1.2 1025.0 19.8
2018-Feb-19 14:00S 35°37' W 138°29'0 0.0 1024.5 19.8
2018-Feb-19 13:00S 35°37' W 138°29'1 1.3 1024.2 19.8
2018-Feb-19 12:00S 35°38' W 138°30'0 0.0 1024.1 19.8
2018-Feb-19 11:00S 35°38' W 138°30'1 0.2 1023.9 19.8
2018-Feb-19 07:00S 35°37' W 138°29'0 0.5 1024.8 20.0
2018-Feb-19 06:00S 35°37' W 138°29'1 0.8 1024.8 20.0
2018-Feb-19 05:00S 35°37' W 138°28'0 0.0 1024.4 20.1
2018-Feb-19 04:00S 35°37' W 138°28'1 0.8 1023.9 20.1
2018-Feb-19 03:00S 35°37' W 138°28'1 1.0 1023.5 20.2
2018-Feb-19 02:00S 35°37' W 138°26'0 0.0 1023.2 20.4
2018-Feb-19 01:00S 35°37' W 138°26'0 0.0 1023.0 20.5
2018-Feb-19 00:00S 35°37' W 138°26'4 0.8 1023.0 20.4
2018-Feb-18 19:00S 35°40' W 138°23'1 1.3 1022.2 19.7
2018-Feb-18 18:00S 35°41' W 138°23'1 0.8 1022.1 19.7
2018-Feb-18 17:00S 35°42' W 138°22'1 0.6 1021.6 19.7
2018-Feb-18 16:00S 35°43' W 138°22'1 1.3 1021.0 19.7
2018-Feb-18 15:00S 35°44' W 138°22'1 0.8 1020.2 19.7
2018-Feb-18 14:00S 35°44' W 138°22'1 1.0 1019.3 19.7
2018-Feb-18 13:00S 35°44' W 138°23'0 0.5 1018.5 19.7
2018-Feb-18 12:00S 35°44' W 138°24'0 0.0 1018.4 19.8
2018-Feb-18 11:00S 35°44' W 138°24'2 0.5 1018.3 19.8
2018-Feb-18 08:00S 35°44' W 138°26'0 0.0 1018.7 19.8
2018-Feb-18 07:00S 35°44' W 138°26'0 0.0 1018.9 19.9
2018-Feb-18 06:00S 35°44' W 138°26'0 0.0 1018.6 19.9
2018-Feb-18 05:00S 35°44' W 138°26'0 0.0 1018.3 19.9
2018-Feb-18 04:00S 35°44' W 138°26'1 0.8 1018.2 20.0
2018-Feb-18 03:00S 35°44' W 138°25'0 0.5 1017.6 20.0
2018-Feb-18 02:00S 35°44' W 138°26'5 2.3 1017.5 20.1
2018-Feb-18 00:00S 35°46' W 138°31'0 0.1 1017.4 20.1
2018-Feb-17 19:00S 35°46' W 138°31'1 1.5 1018.5 19.7
2018-Feb-17 18:00S 35°46' W 138°32'0 0.0 1018.4 19.7
2018-Feb-17 17:00S 35°46' W 138°32'1 0.6 1018.2 19.7
2018-Feb-17 16:00S 35°45' W 138°32'1 0.8 1018.0 19.7
2018-Feb-17 15:00S 35°44' W 138°33'0 0.0 1017.7 19.7
2018-Feb-17 14:00S 35°44' W 138°33'1 1.3 1017.2 19.8
2018-Feb-17 13:00S 35°43' W 138°34'0 0.0 1017.1 19.8
2018-Feb-17 12:00S 35°43' W 138°34'1 0.8 1017.0 19.8
2018-Feb-17 11:00S 35°43' W 138°33'2 0.5 1017.3 19.8
2018-Feb-17 08:00S 35°44' W 138°32'0 0.0 1017.6 19.9
2018-Feb-17 07:00S 35°44' W 138°32'1 1.2 1017.6 19.9
2018-Feb-17 06:00S 35°45' W 138°32'1 0.8 1017.1 19.9
2018-Feb-17 05:00S 35°46' W 138°32'1 0.6 1016.6 19.9
2018-Feb-17 04:00S 35°46' W 138°32'0 0.0 1016.3 20.0
2018-Feb-17 03:00S 35°46' W 138°32'0 0.0 1016.1 20.0
2018-Feb-17 02:00S 35°46' W 138°32'4 3.6 1015.5 20.0
2018-Feb-17 01:00S 35°47' W 138°37'0 0.0 1015.5 20.0
2018-Feb-17 00:00S 35°47' W 138°37'0 0.0 1015.5 20.0
2018-Feb-16 18:00S 35°47' W 138°37'0 0.5 1015.8 19.4
2018-Feb-16 17:00S 35°47' W 138°37'0 0.5 1015.7 19.4
2018-Feb-16 16:00S 35°47' W 138°38'1 0.6 1015.4 19.4
2018-Feb-16 15:00S 35°47' W 138°38'1 0.6 1015.1 19.4
2018-Feb-16 14:00S 35°47' W 138°38'1 0.8 1014.5 19.4
2018-Feb-16 13:00S 35°48' W 138°38'1 0.8 1014.3 19.4
2018-Feb-16 12:00S 35°49' W 138°39'0 0.0 1014.5 19.4
2018-Feb-16 11:00S 35°49' W 138°39'0 0.5 1014.4 19.3
2018-Feb-16 10:00S 35°49' W 138°40'3 0.9 1014.5 19.3
2018-Feb-16 07:00S 35°51' W 138°41'1 0.6 1014.6 19.4
2018-Feb-16 06:00S 35°52' W 138°41'1 0.8 1014.6 19.4
2018-Feb-16 05:00S 35°52' W 138°42'1 1.5 1014.4 19.4
2018-Feb-16 04:00S 35°52' W 138°44'0 0.5 1014.3 19.5
2018-Feb-16 03:00S 35°52' W 138°43'1 0.6 1014.2 19.5
2018-Feb-16 02:00S 35°53' W 138°43'4 4.2 1014.1 19.6
2018-Feb-16 01:00S 35°56' W 138°47'0 0.0 1014.4 19.6
2018-Feb-16 00:00S 35°56' W 138°47'1 0.2 1015.0 19.5
2018-Feb-15 19:00S 35°56' W 138°46'1 1.0 1015.8 19.4
2018-Feb-15 18:00S 35°56' W 138°47'1 1.1 1015.4 19.4
2018-Feb-15 17:00S 35°57' W 138°46'0 0.5 1015.3 19.4
2018-Feb-15 16:00S 35°57' W 138°45'2 1.8 1015.1 19.4
2018-Feb-15 15:00S 35°59' W 138°45'0 0.0 1014.7 19.4
2018-Feb-15 14:00S 35°59' W 138°45'1 0.6 1014.3 19.4
2018-Feb-15 12:00S 36°00' W 138°45'2 2.4 1013.8 19.4
2018-Feb-15 11:00S 36°02' W 138°45'1 0.2 1013.8 19.4
2018-Feb-15 07:00S 36°03' W 138°44'0 0.5 1014.0 19.5
2018-Feb-15 06:00S 36°03' W 138°45'0 0.0 1014.0 19.5
2018-Feb-15 05:00S 36°03' W 138°45'1 0.3 1013.5 19.5
2018-Feb-15 03:00S 36°04' W 138°45'0 0.0 1012.0 19.4
2018-Feb-15 02:00S 36°04' W 138°45'0 0.5 1012.0 19.4
2018-Feb-15 01:00S 36°04' W 138°46'0 0.0 1011.9 19.4
2018-Feb-14 23:00S 36°04' W 138°46'2 0.4 1011.8 19.4
2018-Feb-14 18:00S 36°05' W 138°47'1 0.8 1011.8 19.3
2018-Feb-14 17:00S 36°05' W 138°48'1 0.6 1011.4 19.2
2018-Feb-14 16:00S 36°06' W 138°48'1 0.7 1010.9 19.2
2018-Feb-14 14:00S 36°06' W 138°50'0 0.0 1011.1 19.2
2018-Feb-14 13:00S 36°06' W 138°50'1 0.8 1010.2 19.2
2018-Feb-14 12:00S 36°07' W 138°50'2 2.5 1010.0 19.2
2018-Feb-14 11:00S 36°07' W 138°53'1 0.3 1009.4 19.3
2018-Feb-14 08:00S 36°07' W 138°52'0 0.0 1009.7 19.3
2018-Feb-14 07:00S 36°07' W 138°52'2 1.6 1010.0 19.3
2018-Feb-14 06:00S 36°07' W 138°50'1 0.8 1010.2 19.3
2018-Feb-14 05:00S 36°06' W 138°50'1 1.0 1010.8 19.3
2018-Feb-14 04:00S 36°06' W 138°49'0 0.0 1010.7 19.3
2018-Feb-14 03:00S 36°06' W 138°49'0 0.5 1010.8 19.3
2018-Feb-14 02:00S 36°06' W 138°48'1 0.8 1010.7 19.3
2018-Feb-14 01:00S 36°07' W 138°47'0 0.0 1010.9 19.3
2018-Feb-14 00:00S 36°07' W 138°47'0 0.0 1011.5 19.4
2018-Feb-13 23:00S 36°07' W 138°47'2 0.4 1011.8 19.3
2018-Feb-13 19:00S 36°08' W 138°49'1 1.2 1011.9 19.1
2018-Feb-13 18:00S 36°09' W 138°49'1 0.8 1011.8 19.0
2018-Feb-13 17:00S 36°08' W 138°49'0 0.0 1011.3 19.0
2018-Feb-13 16:00S 36°08' W 138°49'0 0.0 1011.3 19.0
2018-Feb-13 15:00S 36°08' W 138°49'1 1.1 1011.2 18.9
2018-Feb-13 14:00S 36°08' W 138°50'0 0.0 1010.4 19.0
2018-Feb-13 13:00S 36°08' W 138°50'0 0.5 1009.9 19.0
2018-Feb-13 12:00S 36°08' W 138°50'0 0.5 1009.4 19.0
2018-Feb-13 11:00S 36°08' W 138°50'2 2.3 1009.4 19.0
2018-Feb-13 10:00S 36°09' W 138°48'2 1.0 1009.8 19.0
2018-Feb-13 08:00S 36°09' W 138°46'1 1.3 1010.5 19.0
2018-Feb-13 07:00S 36°10' W 138°45'2 2.0 1010.7 19.0
2018-Feb-13 06:00S 36°11' W 138°43'0 0.0 1011.0 19.0
2018-Feb-13 05:00S 36°11' W 138°43'1 0.8 1010.5 19.0
2018-Feb-13 04:00S 36°11' W 138°42'0 0.0 1010.7 19.1
2018-Feb-13 03:00S 36°11' W 138°42'2 2.3 1010.5 19.1
2018-Feb-13 02:00S 36°13' W 138°40'1 1.5 1009.6 19.2
2018-Feb-13 01:00S 36°13' W 138°38'0 0.0 1010.0 19.2
2018-Feb-13 00:00S 36°13' W 138°38'6 1.2 1009.7 19.3
2018-Feb-12 19:00S 36°15' W 138°31'2 1.6 1009.1 19.3
2018-Feb-12 18:00S 36°16' W 138°29'2 2.0 1008.3 19.3
2018-Feb-12 17:00S 36°16' W 138°27'0 0.5 1007.0 19.3
2018-Feb-12 16:00S 36°16' W 138°26'2 1.9 1006.6 19.3
2018-Feb-12 15:00S 36°16' W 138°24'2 1.5 1004.9 19.3
2018-Feb-12 14:00S 36°17' W 138°23'2 1.9 1005.4 19.3
2018-Feb-12 13:00S 36°17' W 138°20'1 1.1 1005.0 19.3
2018-Feb-12 12:00S 36°18' W 138°19'5 1.1 1004.7 19.4
2018-Feb-12 07:00S 36°18' W 138°13'0 0.5 1007.5 19.5
2018-Feb-12 06:00S 36°18' W 138°12'2 0.9 1007.9 19.5
2018-Feb-12 04:00S 36°17' W 138°10'2 2.0 1008.4 19.5
2018-Feb-12 03:00S 36°16' W 138°08'0 0.0 1008.9 19.5
2018-Feb-12 02:00S 36°16' W 138°08'1 1.1 1008.9 19.6
2018-Feb-12 01:00S 36°17' W 138°07'4 4.4 1009.8 19.7
2018-Feb-12 00:00S 36°17' W 138°01'1 0.3 1010.1 19.7
2018-Feb-11 19:00S 36°19' W 138°01'0 0.5 1011.7 19.6
2018-Feb-11 18:00S 36°19' W 138°01'1 1.3 1012.1 19.5
2018-Feb-11 17:00S 36°20' W 138°01'0 0.0 1012.1 19.4
2018-Feb-11 16:00S 36°20' W 138°01'0 0.5 1012.1 19.4
2018-Feb-11 15:00S 36°20' W 138°01'0 0.5 1011.8 19.4
2018-Feb-11 14:00S 36°20' W 138°01'0 0.0 1011.6 19.4
2018-Feb-11 13:00S 36°20' W 138°01'1 0.8 1011.7 19.5
2018-Feb-11 12:00S 36°20' W 138°01'2 0.5 1011.8 19.5
2018-Feb-11 08:00S 36°22' W 138°02'1 0.6 1013.3 19.5
2018-Feb-11 07:00S 36°22' W 138°02'   1013.8 19.5
Track history (hours):
 
Tides and Currents Weather Stations Pressure Air Temp Water Temp Dewpoint Dewpoint Depression Visibility Wind Speed Wind Dir Waves Ship Positions

Drifting buoy 54955

Last reported at 2018-Feb-21 07:00 UTC. Time now 2018-Feb-21 11:11 UTC.
Position S 35°43' W 138°31'.

Barometer 1017.1 mb
Water temperature 19.7 ° C

Date/timePositionNaut miles runAvg speedWind from/ knotsBaromVisibWave heightAir tempDewpointWater temp
2018-Feb-21 07:00S 35°43' W 138°31'0 0.0 1017.1 19.7
2018-Feb-21 06:00S 35°43' W 138°31'2 0.8 1018.0 19.8
2018-Feb-21 04:00S 35°43' W 138°32'1 1.5 1018.0 19.9
2018-Feb-21 03:00S 35°43' W 138°34'1 0.6 1018.0 19.9
2018-Feb-21 02:00S 35°42' W 138°34'2 1.6 1018.4 20.0
2018-Feb-21 01:00S 35°41' W 138°36'0 0.0 1019.0 20.0
2018-Feb-21 00:00S 35°41' W 138°36'4 0.7 1019.7 20.0
2018-Feb-20 19:00S 35°38' W 138°37'0 0.0 1022.7 19.8
2018-Feb-20 18:00S 35°38' W 138°37'0 0.0 1022.7 19.8
2018-Feb-20 17:00S 35°38' W 138°37'1 1.1 1022.7 19.8
2018-Feb-20 16:00S 35°37' W 138°35'0 0.5 1023.1 19.8
2018-Feb-20 15:00S 35°37' W 138°35'0 0.5 1023.2 19.8
2018-Feb-20 14:00S 35°37' W 138°35'0 0.0 1022.9 19.8
2018-Feb-20 13:00S 35°37' W 138°35'1 0.4 1023.0 19.8
2018-Feb-20 11:00S 35°38' W 138°35'2 0.4 1023.6 19.8
2018-Feb-20 07:00S 35°37' W 138°37'1 0.6 1024.7 19.9
2018-Feb-20 06:00S 35°37' W 138°37'0 0.0 1024.7 20.0
2018-Feb-20 05:00S 35°37' W 138°37'1 1.3 1024.5 20.0
2018-Feb-20 04:00S 35°35' W 138°36'0 0.0 1024.5 20.0
2018-Feb-20 03:00S 35°35' W 138°36'1 0.8 1024.4 20.0
2018-Feb-20 02:00S 35°35' W 138°35'0 0.0 1024.5 19.9
2018-Feb-20 01:00S 35°35' W 138°35'0 0.0 1024.3 19.9
2018-Feb-20 00:00S 35°35' W 138°35'4 0.7 1024.4 19.9
2018-Feb-19 18:00S 35°35' W 138°31'0 0.0 1025.5 19.8
2018-Feb-19 17:00S 35°35' W 138°31'0 0.5 1025.3 19.8
2018-Feb-19 16:00S 35°35' W 138°30'0 0.5 1025.3 19.8
2018-Feb-19 15:00S 35°35' W 138°29'1 1.2 1025.0 19.8
2018-Feb-19 14:00S 35°37' W 138°29'0 0.0 1024.5 19.8
2018-Feb-19 13:00S 35°37' W 138°29'1 1.3 1024.2 19.8
2018-Feb-19 12:00S 35°38' W 138°30'0 0.0 1024.1 19.8
2018-Feb-19 11:00S 35°38' W 138°30'1 0.2 1023.9 19.8
2018-Feb-19 07:00S 35°37' W 138°29'0 0.5 1024.8 20.0
2018-Feb-19 06:00S 35°37' W 138°29'1 0.8 1024.8 20.0
2018-Feb-19 05:00S 35°37' W 138°28'0 0.0 1024.4 20.1
2018-Feb-19 04:00S 35°37' W 138°28'1 0.8 1023.9 20.1
2018-Feb-19 03:00S 35°37' W 138°28'1 1.0 1023.5 20.2
2018-Feb-19 02:00S 35°37' W 138°26'0 0.0 1023.2 20.4
2018-Feb-19 01:00S 35°37' W 138°26'0 0.0 1023.0 20.5
2018-Feb-19 00:00S 35°37' W 138°26'4 0.8 1023.0 20.4
2018-Feb-18 19:00S 35°40' W 138°23'1 1.3 1022.2 19.7
2018-Feb-18 18:00S 35°41' W 138°23'1 0.8 1022.1 19.7
2018-Feb-18 17:00S 35°42' W 138°22'1 0.6 1021.6 19.7
2018-Feb-18 16:00S 35°43' W 138°22'1 1.3 1021.0 19.7
2018-Feb-18 15:00S 35°44' W 138°22'1 0.8 1020.2 19.7
2018-Feb-18 14:00S 35°44' W 138°22'1 1.0 1019.3 19.7
2018-Feb-18 13:00S 35°44' W 138°23'0 0.5 1018.5 19.7
2018-Feb-18 12:00S 35°44' W 138°24'0 0.0 1018.4 19.8
2018-Feb-18 11:00S 35°44' W 138°24'2 0.5 1018.3 19.8
2018-Feb-18 08:00S 35°44' W 138°26'0 0.0 1018.7 19.8
2018-Feb-18 07:00S 35°44' W 138°26'0 0.0 1018.9 19.9
2018-Feb-18 06:00S 35°44' W 138°26'0 0.0 1018.6 19.9
2018-Feb-18 05:00S 35°44' W 138°26'0 0.0 1018.3 19.9
2018-Feb-18 04:00S 35°44' W 138°26'1 0.8 1018.2 20.0
2018-Feb-18 03:00S 35°44' W 138°25'0 0.5 1017.6 20.0
2018-Feb-18 02:00S 35°44' W 138°26'5 2.3 1017.5 20.1
2018-Feb-18 00:00S 35°46' W 138°31'0 0.1 1017.4 20.1
2018-Feb-17 19:00S 35°46' W 138°31'1 1.5 1018.5 19.7
2018-Feb-17 18:00S 35°46' W 138°32'0 0.0 1018.4 19.7
2018-Feb-17 17:00S 35°46' W 138°32'1 0.6 1018.2 19.7
2018-Feb-17 16:00S 35°45' W 138°32'1 0.8 1018.0 19.7
2018-Feb-17 15:00S 35°44' W 138°33'0 0.0 1017.7 19.7
2018-Feb-17 14:00S 35°44' W 138°33'1 1.3 1017.2 19.8
2018-Feb-17 13:00S 35°43' W 138°34'0 0.0 1017.1 19.8
2018-Feb-17 12:00S 35°43' W 138°34'1 0.8 1017.0 19.8
2018-Feb-17 11:00S 35°43' W 138°33'2 0.5 1017.3 19.8
2018-Feb-17 08:00S 35°44' W 138°32'0 0.0 1017.6 19.9
2018-Feb-17 07:00S 35°44' W 138°32'1 1.2 1017.6 19.9
2018-Feb-17 06:00S 35°45' W 138°32'1 0.8 1017.1 19.9
2018-Feb-17 05:00S 35°46' W 138°32'1 0.6 1016.6 19.9
2018-Feb-17 04:00S 35°46' W 138°32'0 0.0 1016.3 20.0
2018-Feb-17 03:00S 35°46' W 138°32'0 0.0 1016.1 20.0
2018-Feb-17 02:00S 35°46' W 138°32'4 3.6 1015.5 20.0
2018-Feb-17 01:00S 35°47' W 138°37'0 0.0 1015.5 20.0
2018-Feb-17 00:00S 35°47' W 138°37'0 0.0 1015.5 20.0
2018-Feb-16 18:00S 35°47' W 138°37'0 0.5 1015.8 19.4
2018-Feb-16 17:00S 35°47' W 138°37'0 0.5 1015.7 19.4
2018-Feb-16 16:00S 35°47' W 138°38'1 0.6 1015.4 19.4
2018-Feb-16 15:00S 35°47' W 138°38'1 0.6 1015.1 19.4
2018-Feb-16 14:00S 35°47' W 138°38'1 0.8 1014.5 19.4
2018-Feb-16 13:00S 35°48' W 138°38'1 0.8 1014.3 19.4
2018-Feb-16 12:00S 35°49' W 138°39'0 0.0 1014.5 19.4
2018-Feb-16 11:00S 35°49' W 138°39'0 0.5 1014.4 19.3
2018-Feb-16 10:00S 35°49' W 138°40'3 0.9 1014.5 19.3
2018-Feb-16 07:00S 35°51' W 138°41'1 0.6 1014.6 19.4
2018-Feb-16 06:00S 35°52' W 138°41'1 0.8 1014.6 19.4
2018-Feb-16 05:00S 35°52' W 138°42'1 1.5 1014.4 19.4
2018-Feb-16 04:00S 35°52' W 138°44'0 0.5 1014.3 19.5
2018-Feb-16 03:00S 35°52' W 138°43'1 0.6 1014.2 19.5
2018-Feb-16 02:00S 35°53' W 138°43'4 4.2 1014.1 19.6
2018-Feb-16 01:00S 35°56' W 138°47'0 0.0 1014.4 19.6
2018-Feb-16 00:00S 35°56' W 138°47'1 0.2 1015.0 19.5
2018-Feb-15 19:00S 35°56' W 138°46'1 1.0 1015.8 19.4
2018-Feb-15 18:00S 35°56' W 138°47'1 1.1 1015.4 19.4
2018-Feb-15 17:00S 35°57' W 138°46'0 0.5 1015.3 19.4
2018-Feb-15 16:00S 35°57' W 138°45'2 1.8 1015.1 19.4
2018-Feb-15 15:00S 35°59' W 138°45'0 0.0 1014.7 19.4
2018-Feb-15 14:00S 35°59' W 138°45'1 0.6 1014.3 19.4
2018-Feb-15 12:00S 36°00' W 138°45'2 2.4 1013.8 19.4
2018-Feb-15 11:00S 36°02' W 138°45'1 0.2 1013.8 19.4
2018-Feb-15 07:00S 36°03' W 138°44'0 0.5 1014.0 19.5
2018-Feb-15 06:00S 36°03' W 138°45'0 0.0 1014.0 19.5
2018-Feb-15 05:00S 36°03' W 138°45'1 0.3 1013.5 19.5
2018-Feb-15 03:00S 36°04' W 138°45'0 0.0 1012.0 19.4
2018-Feb-15 02:00S 36°04' W 138°45'0 0.5 1012.0 19.4
2018-Feb-15 01:00S 36°04' W 138°46'0 0.0 1011.9 19.4
2018-Feb-14 23:00S 36°04' W 138°46'2 0.4 1011.8 19.4
2018-Feb-14 18:00S 36°05' W 138°47'1 0.8 1011.8 19.3
2018-Feb-14 17:00S 36°05' W 138°48'1 0.6 1011.4 19.2
2018-Feb-14 16:00S 36°06' W 138°48'1 0.7 1010.9 19.2
2018-Feb-14 14:00S 36°06' W 138°50'0 0.0 1011.1 19.2
2018-Feb-14 13:00S 36°06' W 138°50'1 0.8 1010.2 19.2
2018-Feb-14 12:00S 36°07' W 138°50'2 2.5 1010.0 19.2
2018-Feb-14 11:00S 36°07' W 138°53'1 0.3 1009.4 19.3
2018-Feb-14 08:00S 36°07' W 138°52'0 0.0 1009.7 19.3
2018-Feb-14 07:00S 36°07' W 138°52'2 1.6 1010.0 19.3
2018-Feb-14 06:00S 36°07' W 138°50'1 0.8 1010.2 19.3
2018-Feb-14 05:00S 36°06' W 138°50'1 1.0 1010.8 19.3
2018-Feb-14 04:00S 36°06' W 138°49'0 0.0 1010.7 19.3
2018-Feb-14 03:00S 36°06' W 138°49'0 0.5 1010.8 19.3
2018-Feb-14 02:00S 36°06' W 138°48'1 0.8 1010.7 19.3
2018-Feb-14 01:00S 36°07' W 138°47'0 0.0 1010.9 19.3
2018-Feb-14 00:00S 36°07' W 138°47'0 0.0 1011.5 19.4
2018-Feb-13 23:00S 36°07' W 138°47'2 0.4 1011.8 19.3
2018-Feb-13 19:00S 36°08' W 138°49'1 1.2 1011.9 19.1
2018-Feb-13 18:00S 36°09' W 138°49'1 0.8 1011.8 19.0
2018-Feb-13 17:00S 36°08' W 138°49'0 0.0 1011.3 19.0
2018-Feb-13 16:00S 36°08' W 138°49'0 0.0 1011.3 19.0
2018-Feb-13 15:00S 36°08' W 138°49'1 1.1 1011.2 18.9
2018-Feb-13 14:00S 36°08' W 138°50'0 0.0 1010.4 19.0
2018-Feb-13 13:00S 36°08' W 138°50'0 0.5 1009.9 19.0
2018-Feb-13 12:00S 36°08' W 138°50'0 0.5 1009.4 19.0
2018-Feb-13 11:00S 36°08' W 138°50'2 2.3 1009.4 19.0
2018-Feb-13 10:00S 36°09' W 138°48'2 1.0 1009.8 19.0
2018-Feb-13 08:00S 36°09' W 138°46'1 1.3 1010.5 19.0
2018-Feb-13 07:00S 36°10' W 138°45'2 2.0 1010.7 19.0
2018-Feb-13 06:00S 36°11' W 138°43'0 0.0 1011.0 19.0
2018-Feb-13 05:00S 36°11' W 138°43'1 0.8 1010.5 19.0
2018-Feb-13 04:00S 36°11' W 138°42'0 0.0 1010.7 19.1
2018-Feb-13 03:00S 36°11' W 138°42'2 2.3 1010.5 19.1
2018-Feb-13 02:00S 36°13' W 138°40'1 1.5 1009.6 19.2
2018-Feb-13 01:00S 36°13' W 138°38'0 0.0 1010.0 19.2
2018-Feb-13 00:00S 36°13' W 138°38'6 1.2 1009.7 19.3
2018-Feb-12 19:00S 36°15' W 138°31'2 1.6 1009.1 19.3
2018-Feb-12 18:00S 36°16' W 138°29'2 2.0 1008.3 19.3
2018-Feb-12 17:00S 36°16' W 138°27'0 0.5 1007.0 19.3
2018-Feb-12 16:00S 36°16' W 138°26'2 1.9 1006.6 19.3
2018-Feb-12 15:00S 36°16' W 138°24'2 1.5 1004.9 19.3
2018-Feb-12 14:00S 36°17' W 138°23'2 1.9 1005.4 19.3
2018-Feb-12 13:00S 36°17' W 138°20'1 1.1 1005.0 19.3
2018-Feb-12 12:00S 36°18' W 138°19'5 1.1 1004.7 19.4
2018-Feb-12 07:00S 36°18' W 138°13'0 0.5 1007.5 19.5
2018-Feb-12 06:00S 36°18' W 138°12'2 0.9 1007.9 19.5
2018-Feb-12 04:00S 36°17' W 138°10'2 2.0 1008.4 19.5
2018-Feb-12 03:00S 36°16' W 138°08'0 0.0 1008.9 19.5
2018-Feb-12 02:00S 36°16' W 138°08'1 1.1 1008.9 19.6
2018-Feb-12 01:00S 36°17' W 138°07'4 4.4 1009.8 19.7
2018-Feb-12 00:00S 36°17' W 138°01'1 0.3 1010.1 19.7
2018-Feb-11 19:00S 36°19' W 138°01'0 0.5 1011.7 19.6
2018-Feb-11 18:00S 36°19' W 138°01'1 1.3 1012.1 19.5
2018-Feb-11 17:00S 36°20' W 138°01'0 0.0 1012.1 19.4
2018-Feb-11 16:00S 36°20' W 138°01'0 0.5 1012.1 19.4
2018-Feb-11 15:00S 36°20' W 138°01'0 0.5 1011.8 19.4
2018-Feb-11 14:00S 36°20' W 138°01'0 0.0 1011.6 19.4
2018-Feb-11 13:00S 36°20' W 138°01'1 0.8 1011.7 19.5
2018-Feb-11 12:00S 36°20' W 138°01'2 0.5 1011.8 19.5
2018-Feb-11 08:00S 36°22' W 138°02'1 0.6 1013.3 19.5
2018-Feb-11 07:00S 36°22' W 138°02'   1013.8 19.5

Dump ship's entire track history